Time;durP1;ratioP1;P1;durP2;ratioP2;P2;SDS_P1;SDS_P2;PMS_P1;PMS_P2;Temp;Humidity;BMP_temperature;BMP_pressure;BME280_temperature;BME280_humidity;BME280_pressure;Samples;Min_cycle;Max_cycle;Signal;HPM_P1;HPM_P2
2022/01/18 00:01:20;;;;;;;2.50;2.35;;;;;;;4.15;71.36;94503.69;833921;71;32703;-79
2022/01/18 00:46:14;;;;;;;3.58;3.27;;;;;;;3.99;67.50;94500.97;828215;71;33072;-79
2022/01/18 01:01:12;;;;;;;5.20;4.08;;;;;;;3.94;67.14;94558.53;784757;74;32394;-81
2022/01/18 01:46:14;;;;;;;4.90;4.30;;;;;;;3.67;73.99;94647.50;827943;71;32202;-82
2022/01/18 02:01:13;;;;;;;3.33;3.02;;;;;;;3.26;71.69;94642.26;829862;71;31016;-84
2022/01/18 02:21:45;;;;;;;2.30;2.20;;;;;;;2.91;64.93;94684.25;835972;70;29207;-80
2022/01/18 02:31:16;;;;;;;1.80;1.70;;;;;;;2.56;59.19;94731.84;835740;70;31970;-83
2022/01/18 02:46:15;;;;;;;1.90;1.80;;;;;;;2.23;56.09;94769.23;822232;71;31828;-81
2022/01/18 03:16:10;;;;;;;2.12;1.95;;;;;;;1.58;54.34;94833.02;836021;70;29324;-82
2022/01/18 03:31:15;;;;;;;4.10;2.20;;;;;;;1.36;54.54;94849.06;828735;71;31717;-81
2022/01/18 03:46:30;;;;;;;7.87;2.35;;;;;;;1.23;54.83;94874.30;834056;71;33411;-80
2022/01/18 04:01:10;;;;;;;3.08;2.12;;;;;;;1.12;54.52;94890.05;822716;71;29822;-79
2022/01/18 04:16:20;;;;;;;3.45;2.60;;;;;;;1.01;54.60;94935.48;833899;71;31773;-80
2022/01/18 04:31:15;;;;;;;2.60;1.87;;;;;;;1.20;65.24;94984.08;827263;71;31686;-77
2022/01/18 05:01:12;;;;;;;2.62;1.87;;;;;;;1.36;52.89;95042.16;834006;71;29384;-77
2022/01/18 05:31:08;;;;;;;2.65;2.45;;;;;;;1.21;53.76;95083.84;821295;71;28635;-79
2022/01/18 05:46:08;;;;;;;3.20;2.70;;;;;;;1.20;53.86;95097.28;828252;71;28695;-77
2022/01/18 06:01:21;;;;;;;3.05;2.75;;;;;;;1.19;54.17;95120.75;827327;71;31662;-76
2022/01/18 06:16:08;;;;;;;2.83;2.62;;;;;;;1.25;54.13;95151.41;828428;71;28635;-78
2022/01/18 06:31:15;;;;;;;3.72;3.42;;;;;;;2.60;52.47;95179.77;828676;71;29822;-77
2022/01/18 06:46:09;;;;;;;3.37;3.08;;;;;;;4.61;48.46;95169.30;828014;71;29217;-78
2022/01/18 07:01:11;;;;;;;3.90;3.22;;;;;;;6.08;44.92;95182.19;833991;71;29287;-78
2022/01/18 07:16:10;;;;;;;4.08;3.67;;;;;;;7.31;42.34;95207.45;834440;71;29316;-79
2022/01/18 07:31:16;;;;;;;3.92;3.62;;;;;;;8.50;40.11;95231.98;827851;71;32651;-75
2022/01/18 07:46:15;;;;;;;5.95;3.77;;;;;;;9.50;38.29;95227.72;833885;71;32639;-77
2022/01/18 08:16:33;;;;;;;4.62;4.22;;;;;;;8.93;37.25;95273.20;829339;71;30915;-76
2022/01/18 08:31:10;;;;;;;3.60;3.20;;;;;;;8.83;40.12;95276.05;828723;71;30360;-78
2022/01/18 08:46:10;;;;;;;6.00;4.70;;;;;;;9.73;36.17;95276.72;828594;71;30728;-79
2022/01/18 09:01:09;;;;;;;3.35;3.05;;;;;;;9.68;34.60;95304.25;834240;71;30048;-75
2022/01/18 09:16:19;;;;;;;3.67;3.37;;;;;;;10.14;34.65;161519.55;834111;71;32740;-77
2022/01/18 09:31:10;;;;;;;3.40;3.10;;;;;;;10.88;33.46;95305.91;835028;71;29715;-80
2022/01/18 09:46:52;;;;;;;4.87;3.08;;;;;;;11.12;33.10;95266.13;809401;72;32762;-81
2022/01/18 10:01:10;;;;;;;5.28;3.60;;;;;;;11.47;33.04;95282.73;828782;71;30254;-79
2022/01/18 10:16:21;;;;;;;3.55;3.25;;;;;;;9.87;34.08;95287.47;833709;71;30126;-77
2022/01/18 10:31:27;;;;;;;4.00;3.70;;;;;;;8.23;36.68;95298.22;827097;71;33206;-78
2022/01/18 10:46:16;;;;;;;3.55;3.20;;;;;;;8.33;36.37;95287.84;834928;71;33007;-78
2022/01/18 11:01:20;;;;;;;4.33;3.30;;;;;;;9.98;34.33;95289.83;834246;71;32758;-76
2022/01/18 11:16:23;;;;;;;3.98;3.30;;;;;;;10.72;33.02;95281.02;828065;71;32517;-76
2022/01/18 11:31:12;;;;;;;4.85;3.85;;;;;;;10.41;32.99;95279.80;827999;71;30211;-77
2022/01/18 11:46:23;;;;;;;4.17;3.72;;;;;;;10.97;32.52;95278.83;833775;71;29732;-77
2022/01/18 12:01:10;;;;;;;4.53;4.00;;;;;;;10.40;32.54;95263.82;827833;71;30850;-78
2022/01/18 12:16:21;;;;;;;5.53;3.92;;;;;;;;;;827364;71;32661;-77
2022/01/18 12:46:17;;;;;;;3.47;3.17;;;;;;;8.13;34.32;95260.25;827356;71;33112;-78
2022/01/18 13:01:19;;;;;;;4.42;3.17;;;;;;;7.61;35.35;95245.55;833741;71;33025;-77
2022/01/18 13:31:16;;;;;;;3.60;3.30;;;;;;;6.12;37.77;95265.34;828134;71;30260;-76
2022/01/18 13:46:11;;;;;;;5.45;3.72;;;;;;;5.08;39.70;95261.89;833911;71;31507;-77
2022/01/18 14:01:14;;;;;;;6.00;3.77;;;;;;;4.07;40.93;95285.64;833934;71;31898;-77
2022/01/18 14:16:36;;;;;;;4.40;3.42;;;;;;;3.45;42.90;95302.41;833868;71;33178;-78
2022/01/18 14:31:17;;;;;;;3.98;3.20;;;;;;;3.13;44.24;95325.20;829027;70;32748;-80
2022/01/18 14:46:56;;;;;;;4.78;4.25;;;;;;;2.85;45.34;95312.79;834375;71;32733;-77
2022/01/18 15:01:18;;;;;;;8.43;4.85;;;;;;;2.60;45.58;95330.01;827326;71;33120;-76
2022/01/18 15:16:10;;;;;;;6.10;3.70;;;;;;;2.33;46.43;95334.69;828980;71;30362;-77
2022/01/18 15:31:29;;;;;;;5.20;4.53;;;;;;;2.05;47.02;95340.33;821046;71;32836;-79
2022/01/18 15:46:10;;;;;;;8.95;5.03;;;;;;;1.74;47.79;95348.92;830029;71;30360;-79
2022/01/18 16:01:12;;;;;;;6.62;4.30;;;;;;;1.51;48.63;95355.95;830490;71;31915;-81
2022/01/18 17:16:19;;;;;;;9.78;5.00;;;;;;;1.04;50.40;95425.98;816032;71;33090;-81
